createdAt,value
2019-04-21T00:00:24.152Z,36.85
2019-04-21T00:01:24.245Z,37.27
2019-04-21T00:02:30.143Z,36.94
2019-04-21T00:03:34.514Z,36.87
2019-04-21T00:04:40.817Z,37.16
2019-04-21T00:05:43.678Z,36.96
2019-04-21T00:06:48.168Z,36.76
2019-04-21T00:07:45.353Z,36.96
2019-04-21T00:08:41.504Z,37.07
2019-04-21T00:09:50.172Z,36.76
2019-04-21T00:10:47.967Z,36.46
2019-04-21T00:11:41.128Z,36.57
2019-04-21T00:12:40.605Z,36.07
2019-04-21T00:13:38.130Z,35.96
2019-04-21T00:14:35.013Z,36.07
2019-04-21T00:15:32.918Z,36.07
2019-04-21T00:16:33.470Z,36.07
2019-04-21T00:17:26.344Z,35.98
2019-04-21T00:18:23.374Z,36.08
2019-04-21T00:19:26.800Z,35.88
2019-04-21T00:20:31.231Z,35.98
2019-04-21T00:21:34.495Z,35.98
2019-04-21T00:22:38.060Z,35.78
2019-04-21T00:23:42.479Z,35.68
2019-04-21T00:24:33.662Z,35.98
2019-04-21T00:25:36.188Z,36.18
2019-04-21T00:26:37.656Z,36.28
2019-04-21T00:27:41.335Z,35.78
2019-04-21T00:28:50.453Z,35.78
2019-04-21T00:29:42.537Z,35.88
2019-04-21T00:30:44.354Z,36.08
2019-04-21T00:31:38.185Z,35.98
2019-04-21T00:32:38.170Z,35.89
2019-04-21T00:33:28.844Z,35.78
2019-04-21T00:34:23.766Z,35.89
2019-04-21T00:35:25.982Z,35.98
2019-04-21T00:36:29.414Z,35.98
2019-04-21T00:37:44.707Z,36.20
2019-04-21T00:38:51.431Z,36.20
2019-04-21T00:40:50.432Z,36.30
2019-04-21T00:41:43.356Z,36.00
2019-04-21T00:42:44.638Z,35.80
2019-04-21T00:43:37.260Z,36.00
2019-04-21T00:44:35.858Z,36.30
2019-04-21T00:45:33.696Z,36.00
2019-04-21T00:46:40.332Z,36.10
2019-04-21T00:47:38.838Z,36.30
2019-04-21T00:48:43.972Z,36.10
2019-04-21T00:49:38.151Z,36.30
2019-04-21T00:50:53.231Z,36.30
2019-04-21T00:51:54.138Z,36.10
2019-04-21T00:52:58.181Z,36.20
2019-04-21T00:53:51.189Z,36.30
2019-04-21T00:54:55.432Z,36.02
2019-04-21T00:55:51.128Z,36.02
2019-04-21T00:56:48.309Z,36.21
2019-04-21T00:57:53.442Z,36.32
2019-04-21T00:58:47.457Z,36.02
2019-04-21T00:59:48.306Z,36.02
2019-04-21T01:00:47.562Z,36.11
2019-04-21T01:01:44.662Z,36.32
2019-04-21T01:02:49.939Z,36.21
2019-04-21T01:03:46.288Z,36.21
2019-04-21T01:04:44.900Z,36.11
2019-04-21T01:05:46.912Z,36.32
2019-04-21T01:06:48.435Z,36.32
2019-04-21T01:07:41.034Z,36.41
2019-04-21T01:08:42.683Z,36.21
2019-04-21T01:09:36.693Z,36.32
2019-04-21T01:10:34.921Z,36.33
2019-04-21T01:11:44.415Z,36.21
2019-04-21T01:12:41.783Z,36.33
2019-04-21T01:13:45.470Z,36.33
2019-04-21T01:14:49.710Z,36.33
2019-04-21T01:15:50.132Z,36.23
2019-04-21T01:16:48.554Z,36.23
2019-04-21T01:17:48.126Z,36.23
2019-04-21T01:18:46.278Z,36.23
2019-04-21T01:19:39.774Z,36.33
2019-04-21T01:20:22.930Z,36.54
2019-04-21T01:21:21.922Z,36.33
2019-04-21T01:22:21.887Z,36.54
2019-04-21T01:23:23.314Z,36.35
2019-04-21T01:24:30.727Z,36.55
2019-04-21T01:25:30.327Z,36.25
2019-04-21T01:26:33.432Z,36.35
2019-04-21T01:27:48.484Z,36.35
2019-04-21T01:28:40.037Z,36.65
2019-04-21T01:29:46.001Z,36.35
2019-04-21T01:30:39.945Z,36.45
2019-04-21T01:31:37.659Z,36.25
2019-04-21T01:32:46.994Z,36.25
2019-04-21T01:33:44.900Z,36.25
2019-04-21T01:34:45.478Z,36.55
2019-04-21T01:35:46.832Z,36.35
2019-04-21T01:36:38.633Z,36.35
2019-04-21T01:37:49.528Z,36.35
2019-04-21T01:38:52.484Z,36.15
2019-04-21T01:39:51.552Z,36.35
2019-04-21T01:40:47.523Z,36.36
2019-04-21T01:41:49.208Z,36.47
2019-04-21T01:42:48.472Z,36.36
2019-04-21T01:43:42.862Z,36.36
2019-04-21T01:44:46.144Z,36.47
2019-04-21T01:45:46.792Z,36.47
2019-04-21T01:46:40.771Z,36.57
2019-04-21T01:47:40.867Z,36.47
2019-04-21T01:48:41.828Z,36.36
2019-04-21T01:49:34.749Z,36.57
2019-04-21T01:50:41.177Z,36.27
2019-04-21T01:51:45.277Z,36.57
2019-04-21T01:52:54.691Z,36.47
2019-04-21T01:53:42.478Z,37.17
2019-04-21T01:54:40.640Z,36.57
2019-04-21T01:55:45.642Z,36.47
2019-04-21T01:56:38.689Z,36.27
2019-04-21T01:57:37.740Z,36.38
2019-04-21T01:58:34.178Z,37.19
2019-04-21T01:59:36.691Z,36.38
2019-04-21T02:00:39.090Z,36.57
2019-04-21T02:01:42.457Z,36.38
2019-04-21T02:02:49.202Z,36.69
2019-04-21T02:03:54.347Z,36.58
2019-04-21T02:04:54.183Z,36.58
2019-04-21T02:05:44.384Z,36.58
2019-04-21T02:06:44.433Z,36.38
2019-04-21T02:07:47.501Z,36.38
2019-04-21T02:08:41.818Z,36.29
2019-04-21T02:09:46.348Z,36.29
2019-04-21T02:10:49.101Z,36.38
2019-04-21T02:11:47.105Z,36.58
2019-04-21T02:12:45.938Z,36.38
2019-04-21T02:13:51.261Z,36.40
2019-04-21T02:14:51.524Z,36.20
2019-04-21T02:15:52.817Z,36.20
2019-04-21T02:16:42.252Z,36.30
2019-04-21T02:17:44.677Z,36.20
2019-04-21T02:18:38.993Z,36.20
2019-04-21T02:19:36.347Z,36.40
2019-04-21T02:20:32.728Z,36.40
2019-04-21T02:22:57.385Z,36.20
2019-04-21T02:23:47.920Z,36.30
2019-04-21T02:24:51.604Z,36.40
2019-04-21T02:25:44.533Z,36.20
2019-04-21T02:26:47.703Z,36.42
2019-04-21T02:27:42.869Z,36.20
2019-04-21T02:28:50.289Z,36.20
2019-04-21T02:29:48.683Z,36.40
2019-04-21T02:30:55.066Z,36.40
2019-04-21T02:32:00.320Z,36.40
2019-04-21T02:35:13.656Z,36.20
2019-04-21T02:36:02.745Z,36.30
2019-04-21T02:37:05.446Z,36.42
2019-04-21T02:38:03.852Z,36.40
2019-04-21T02:39:00.565Z,36.22
2019-04-21T02:39:57.331Z,36.22
2019-04-21T02:41:54.610Z,36.22
2019-04-21T02:43:00.221Z,36.42
2019-04-21T02:44:51.982Z,36.52
2019-04-21T02:45:56.318Z,36.42
2019-04-21T02:47:57.256Z,36.22
2019-04-21T02:48:56.404Z,36.22
2019-04-21T02:50:00.267Z,36.42
2019-04-21T02:50:47.274Z,36.22
2019-04-21T02:51:54.915Z,36.32
2019-04-21T02:52:52.372Z,36.22
2019-04-21T02:54:24.639Z,36.44
2019-04-21T02:55:51.417Z,36.22
2019-04-21T02:57:07.027Z,36.24
2019-04-21T02:57:59.405Z,36.44
2019-04-21T02:59:59.566Z,36.24
2019-04-21T03:01:12.763Z,36.44
2019-04-21T03:01:56.510Z,36.54
2019-04-21T03:03:54.584Z,36.24
2019-04-21T03:04:53.286Z,36.24
2019-04-21T03:05:50.832Z,36.24
2019-04-21T03:07:55.448Z,36.44
2019-04-21T03:09:03.236Z,36.24
2019-04-21T03:10:54.121Z,36.33
2019-04-21T03:11:57.719Z,36.24
2019-04-21T03:12:56.965Z,36.44
2019-04-21T03:13:57.246Z,36.33
2019-04-21T03:15:59.267Z,36.25
2019-04-21T03:16:47.148Z,36.46
2019-04-21T03:17:59.729Z,36.35
2019-04-21T03:19:04.934Z,36.55
2019-04-21T03:21:00.170Z,36.55
2019-04-21T03:21:57.404Z,36.46
2019-04-21T03:22:57.282Z,36.25
2019-04-21T03:23:53.536Z,36.55
2019-04-21T03:26:07.329Z,36.46
2019-04-21T03:27:01.597Z,36.46
2019-04-21T03:27:57.270Z,36.46
2019-04-21T03:28:56.350Z,36.46
2019-04-21T03:29:57.093Z,36.35
2019-04-21T03:32:32.222Z,36.15
2019-04-21T03:33:41.023Z,36.25
2019-04-21T03:37:56.474Z,36.47
2019-04-21T03:38:48.367Z,36.47
2019-04-21T03:40:47.149Z,36.17
2019-04-21T03:42:04.016Z,36.27
2019-04-21T03:42:57.204Z,36.17
2019-04-21T03:43:56.744Z,36.37
2019-04-21T03:47:54.834Z,36.57
2019-04-21T03:48:51.619Z,36.67
2019-04-21T03:49:56.041Z,36.67
2019-04-21T03:50:58.785Z,36.67
2019-04-21T03:51:57.594Z,36.79
2019-04-21T03:52:53.302Z,36.17
2019-04-21T03:53:46.466Z,36.37
2019-04-21T03:54:54.099Z,36.49
2019-04-21T03:56:00.666Z,36.27
2019-04-21T03:57:10.976Z,36.08
2019-04-21T03:58:13.123Z,36.29
2019-04-21T04:00:03.640Z,36.08
2019-04-21T04:01:00.475Z,35.99
2019-04-21T04:02:03.916Z,36.29
2019-04-21T04:02:55.110Z,36.08
2019-04-21T04:04:11.580Z,35.99
2019-04-21T04:04:53.529Z,35.99
2019-04-21T04:06:57.096Z,35.99
2019-04-21T04:08:34.999Z,36.08
2019-04-21T04:09:54.050Z,35.99
2019-04-21T04:11:52.344Z,36.19
2019-04-21T04:12:50.343Z,36.08
2019-04-21T04:13:56.383Z,36.00
2019-04-21T04:14:55.419Z,36.19
2019-04-21T04:16:57.223Z,36.19
2019-04-21T04:17:46.483Z,36.30
2019-04-21T04:18:53.382Z,36.08
2019-04-21T04:19:53.592Z,36.10
2019-04-21T04:20:51.326Z,36.00
2019-04-21T04:21:57.183Z,36.20
2019-04-21T04:22:55.333Z,36.00
2019-04-21T04:23:52.142Z,36.30
2019-04-21T04:24:57.965Z,36.10
2019-04-21T04:25:53.577Z,36.00
2019-04-21T04:28:02.147Z,36.30
2019-04-21T04:28:56.313Z,36.02
2019-04-21T04:29:51.354Z,36.22
2019-04-21T04:30:56.150Z,36.22
2019-04-21T04:31:42.798Z,36.93
2019-04-21T04:32:54.148Z,36.71
2019-04-21T04:33:59.945Z,36.72
2019-04-21T04:34:56.899Z,36.22
2019-04-21T04:36:05.926Z,36.62
2019-04-21T04:37:12.765Z,36.72
2019-04-21T04:39:14.458Z,36.82
2019-04-21T04:40:03.589Z,36.22
2019-04-21T04:41:01.046Z,36.62
2019-04-21T04:42:03.571Z,37.23
2019-04-21T04:42:57.009Z,36.72
2019-04-21T04:43:54.657Z,36.72
2019-04-21T04:45:06.134Z,36.93
2019-04-21T04:45:54.096Z,37.23
2019-04-21T04:46:57.663Z,37.23
2019-04-21T04:47:53.204Z,36.82
2019-04-21T04:48:51.665Z,37.43
2019-04-21T04:49:54.351Z,37.43
2019-04-21T04:50:53.563Z,36.93
2019-04-21T04:52:48.501Z,37.43
2019-04-21T04:53:46.882Z,37.13
2019-04-21T04:54:59.455Z,36.94
2019-04-21T04:55:48.164Z,37.15
2019-04-21T04:57:03.198Z,37.15
2019-04-21T04:57:59.270Z,37.55
2019-04-21T04:59:23.270Z,37.35
2019-04-21T04:59:53.892Z,37.24
2019-04-21T05:01:00.365Z,37.35
2019-04-21T05:02:52.311Z,36.94
2019-04-21T05:03:56.941Z,37.35
2019-04-21T05:04:59.019Z,37.45
2019-04-21T05:06:06.872Z,37.45
2019-04-21T05:08:08.021Z,37.45
2019-04-21T05:10:57.381Z,36.94
2019-04-21T05:12:57.055Z,37.04
2019-04-21T05:13:55.397Z,36.94
2019-04-21T05:14:51.810Z,37.24
2019-04-21T05:15:53.252Z,36.94
2019-04-21T05:19:10.572Z,36.96
2019-04-21T05:20:03.058Z,36.74
2019-04-21T05:20:58.943Z,36.84
2019-04-21T05:22:05.719Z,36.94
2019-04-21T05:22:42.289Z,36.94
2019-04-21T05:23:45.615Z,37.04
2019-04-21T05:24:37.961Z,36.74
2019-04-21T05:25:37.542Z,36.76
2019-04-21T05:26:41.959Z,37.37
2019-04-21T05:27:33.567Z,36.76
2019-04-21T05:28:32.953Z,37.57
2019-04-21T05:29:37.777Z,37.75
2019-04-21T05:30:41.927Z,37.66
2019-04-21T05:31:44.562Z,37.65
2019-04-21T05:32:46.241Z,37.97
2019-04-21T05:33:47.550Z,37.95
2019-04-21T05:34:36.923Z,38.17
2019-04-21T05:35:43.669Z,37.57
2019-04-21T05:36:37.941Z,37.87
2019-04-21T05:37:35.329Z,37.87
2019-04-21T05:38:39.260Z,37.97
2019-04-21T05:39:34.739Z,37.85
2019-04-21T05:40:37.336Z,37.46
2019-04-21T05:41:31.384Z,38.37
2019-04-21T05:42:35.267Z,37.24
2019-04-21T05:43:39.049Z,38.37
2019-04-21T05:44:51.594Z,37.85
2019-04-21T05:45:46.019Z,38.17
2019-04-21T05:46:49.245Z,37.97
2019-04-21T05:47:46.353Z,37.06
2019-04-21T05:48:39.675Z,37.77
2019-04-21T05:49:38.715Z,37.16
2019-04-21T05:50:42.953Z,37.26
2019-04-21T05:51:37.237Z,37.46
2019-04-21T05:52:34.062Z,37.87
2019-04-21T05:53:42.677Z,37.77
2019-04-21T05:55:46.598Z,37.66
2019-04-21T05:56:40.713Z,37.57
2019-04-21T05:57:43.166Z,37.57
2019-04-21T05:58:43.581Z,37.55
2019-04-21T05:59:47.994Z,37.66
2019-04-21T06:00:59.455Z,38.07
2019-04-21T06:02:07.520Z,38.48
2019-04-21T06:02:44.128Z,38.15
2019-04-21T06:03:54.955Z,38.35
2019-04-21T06:05:10.441Z,38.46
2019-04-21T06:05:58.452Z,38.56
2019-04-21T06:06:53.797Z,38.35
2019-04-21T06:07:42.820Z,38.56
2019-04-21T06:09:54.131Z,38.56
2019-04-21T06:10:48.846Z,38.26
2019-04-21T06:11:42.334Z,38.46
2019-04-21T06:12:40.339Z,38.76
2019-04-21T06:13:48.262Z,38.86
2019-04-21T06:14:44.963Z,38.86
2019-04-21T06:15:42.971Z,38.66
2019-04-21T06:17:47.247Z,38.66
2019-04-21T06:18:48.869Z,39.26
2019-04-21T06:20:40.700Z,38.96
2019-04-21T06:21:40.566Z,39.06
2019-04-21T06:22:36.126Z,39.37
2019-04-21T06:23:40.334Z,39.25
2019-04-21T06:25:06.951Z,39.25
2019-04-21T06:25:55.492Z,39.17
2019-04-21T06:26:56.280Z,39.04
2019-04-21T06:28:00.045Z,39.15
2019-04-21T06:28:46.561Z,38.84
2019-04-21T06:29:46.666Z,39.15
2019-04-21T06:30:53.109Z,39.04
2019-04-21T06:33:45.963Z,39.15
2019-04-21T06:35:01.101Z,38.84
2019-04-21T06:36:11.412Z,39.04
2019-04-21T06:36:45.149Z,38.84
2019-04-21T06:38:53.871Z,38.82
2019-04-21T06:39:52.419Z,39.15
2019-04-21T06:40:42.462Z,38.73
2019-04-21T06:41:38.045Z,39.13
2019-04-21T06:42:51.385Z,38.73
2019-04-21T06:43:48.463Z,39.13
2019-04-21T06:44:48.337Z,38.82
2019-04-21T06:45:48.916Z,38.82
2019-04-21T06:46:39.378Z,39.03
2019-04-21T06:48:00.886Z,38.82
2019-04-21T06:48:40.934Z,38.82
2019-04-21T06:49:40.215Z,39.03
2019-04-21T06:50:47.968Z,38.81
2019-04-21T06:51:57.671Z,39.11
2019-04-21T06:52:51.960Z,39.11
2019-04-21T06:53:48.649Z,39.01
2019-04-21T06:54:54.908Z,39.01
2019-04-21T06:55:40.245Z,38.91
2019-04-21T06:57:46.290Z,39.01
2019-04-21T06:58:42.842Z,38.91
2019-04-21T06:59:38.434Z,39.01
2019-04-21T07:00:39.111Z,38.91
2019-04-21T07:02:05.577Z,39.09
2019-04-21T07:03:40.451Z,39.01
2019-04-21T07:04:46.419Z,39.19
2019-04-21T07:05:51.981Z,38.89
2019-04-21T07:06:49.566Z,38.99
2019-04-21T07:07:43.397Z,39.09
2019-04-21T07:08:46.197Z,38.99
2019-04-21T07:09:48.310Z,39.09
2019-04-21T07:10:37.054Z,38.79
2019-04-21T07:11:37.904Z,38.69
2019-04-21T07:12:39.344Z,39.09
2019-04-21T07:13:38.842Z,38.79
2019-04-21T07:14:48.226Z,38.79
2019-04-21T07:15:43.646Z,38.79
2019-04-21T07:16:45.219Z,38.87
2019-04-21T07:17:38.997Z,39.59
2019-04-21T07:18:42.848Z,38.79
2019-04-21T07:19:55.943Z,39.59
2019-04-21T07:20:47.772Z,39.28
2019-04-21T07:21:41.091Z,38.77
2019-04-21T07:22:44.697Z,39.58
2019-04-21T07:23:45.859Z,39.59
2019-04-21T07:24:42.908Z,38.87
2019-04-21T07:25:49.682Z,39.37
2019-04-21T07:26:44.730Z,39.39
2019-04-21T07:27:42.771Z,39.48
2019-04-21T07:28:49.568Z,39.48
2019-04-21T07:30:43.841Z,39.48
2019-04-21T07:31:48.154Z,39.17
2019-04-21T07:32:40.062Z,39.48
2019-04-21T07:34:38.536Z,39.58
2019-04-21T07:35:37.411Z,39.05
2019-04-21T07:37:41.286Z,39.07
2019-04-21T07:38:44.239Z,39.36
2019-04-21T07:39:40.513Z,39.28
2019-04-21T07:40:33.673Z,39.07
2019-04-21T07:41:39.786Z,39.07
2019-04-21T07:42:32.824Z,39.37
2019-04-21T07:43:35.582Z,39.25
2019-04-21T07:44:35.142Z,39.36
2019-04-21T07:45:36.713Z,39.36
2019-04-21T07:46:31.415Z,39.36
2019-04-21T07:47:40.556Z,39.28
2019-04-21T07:48:37.790Z,39.36
2019-04-21T07:49:43.457Z,39.56
2019-04-21T07:50:38.562Z,39.45
2019-04-21T07:51:45.272Z,39.65
2019-04-21T07:52:44.080Z,39.65
2019-04-21T07:53:42.353Z,39.65
2019-04-21T07:54:54.083Z,39.56
2019-04-21T07:56:25.518Z,38.95
2019-04-21T07:57:35.441Z,39.76
2019-04-21T07:58:47.711Z,38.95
2019-04-21T07:59:48.573Z,39.05
2019-04-21T08:00:47.770Z,39.36
2019-04-21T08:01:38.099Z,39.03
2019-04-21T08:02:40.420Z,39.05
2019-04-21T08:03:38.754Z,39.15
2019-04-21T08:05:37.643Z,39.03
2019-04-21T08:06:40.845Z,39.03
2019-04-21T08:07:47.663Z,39.05
2019-04-21T08:08:34.506Z,39.03
2019-04-21T08:09:42.275Z,39.34
2019-04-21T08:10:36.244Z,39.14
2019-04-21T08:11:35.554Z,38.93
2019-04-21T08:12:37.438Z,39.43
2019-04-21T08:13:41.544Z,38.93
2019-04-21T08:14:48.255Z,39.54
2019-04-21T08:15:40.273Z,39.54
2019-04-21T08:16:42.125Z,39.14
2019-04-21T08:17:35.943Z,39.74
2019-04-21T08:18:42.415Z,39.64
2019-04-21T08:19:36.991Z,39.52
2019-04-21T08:20:36.336Z,39.72
2019-04-21T08:21:42.016Z,39.92
2019-04-21T08:22:39.816Z,39.01
2019-04-21T08:23:39.908Z,39.23
2019-04-21T08:24:45.287Z,39.52
2019-04-21T08:25:48.582Z,39.32
2019-04-21T08:26:51.567Z,39.62
2019-04-21T08:27:41.812Z,39.52
2019-04-21T08:28:40.411Z,39.72
2019-04-21T08:29:39.401Z,39.72
2019-04-21T08:30:39.337Z,39.72
2019-04-21T08:31:51.676Z,39.72
2019-04-21T08:32:51.557Z,40.02
2019-04-21T08:34:01.964Z,39.52
2019-04-21T08:34:45.430Z,40.12
2019-04-21T08:36:36.346Z,39.82
2019-04-21T08:37:41.783Z,39.72
2019-04-21T08:38:40.221Z,39.72
2019-04-21T08:39:48.993Z,39.52
2019-04-21T08:40:42.428Z,39.72
2019-04-21T08:41:40.734Z,39.52
2019-04-21T08:42:38.358Z,39.82
2019-04-21T08:44:45.223Z,39.62
2019-04-21T08:45:41.398Z,39.60
2019-04-21T08:46:40.574Z,39.60
2019-04-21T08:47:39.875Z,39.40
2019-04-21T08:48:40.377Z,39.50
2019-04-21T08:49:36.477Z,39.70
2019-04-21T08:50:37.335Z,39.60
2019-04-21T08:51:40.393Z,39.30
2019-04-21T08:52:43.911Z,39.60
2019-04-21T08:53:43.791Z,39.50
2019-04-21T08:54:40.894Z,39.60
2019-04-21T08:55:45.496Z,39.58
2019-04-21T08:56:33.918Z,39.88
2019-04-21T08:57:42.713Z,39.30
2019-04-21T08:58:47.923Z,39.58
2019-04-21T08:59:36.096Z,39.70
2019-04-21T09:00:38.488Z,39.70
2019-04-21T09:01:36.421Z,39.38
2019-04-21T09:03:35.787Z,39.69
2019-04-21T09:04:33.557Z,39.48
2019-04-21T09:05:40.913Z,40.19
2019-04-21T09:06:54.252Z,39.69
2019-04-21T09:07:39.411Z,40.19
2019-04-21T09:08:39.632Z,39.78
2019-04-21T09:09:52.807Z,39.88
2019-04-21T09:10:36.591Z,39.69
2019-04-21T09:11:37.574Z,40.08
2019-04-21T09:12:34.673Z,39.98
2019-04-21T09:13:37.039Z,40.08
2019-04-21T09:14:36.647Z,39.98
2019-04-21T09:15:39.748Z,40.19
2019-04-21T09:16:33.871Z,39.98
2019-04-21T09:17:28.632Z,39.69
2019-04-21T09:18:35.539Z,39.98
2019-04-21T09:19:44.535Z,39.69
2019-04-21T09:20:46.053Z,40.37
2019-04-21T09:21:40.594Z,40.59
2019-04-21T09:22:35.816Z,40.26
2019-04-21T09:23:36.104Z,39.86
2019-04-21T09:24:33.028Z,40.17
2019-04-21T09:25:43.242Z,40.26
2019-04-21T09:26:36.995Z,40.37
2019-04-21T09:27:30.837Z,40.17
2019-04-21T09:28:32.963Z,40.17
2019-04-21T09:29:26.563Z,40.17
2019-04-21T09:30:17.625Z,40.26
2019-04-21T09:31:23.917Z,39.97
2019-04-21T09:32:23.232Z,40.37
2019-04-21T09:33:18.488Z,40.47
2019-04-21T09:34:25.069Z,40.26
2019-04-21T09:35:19.124Z,40.26
2019-04-21T09:36:21.195Z,40.17
2019-04-21T09:37:28.839Z,40.26
2019-04-21T09:38:27.686Z,40.26
2019-04-21T09:39:21.867Z,40.25
2019-04-21T09:40:27.441Z,39.84
2019-04-21T09:41:21.989Z,39.97
2019-04-21T09:42:19.717Z,39.95
2019-04-21T09:43:25.852Z,39.84
2019-04-21T09:44:25.501Z,39.84
2019-04-21T09:45:17.796Z,39.95
2019-04-21T09:46:16.359Z,39.64
2019-04-21T09:47:21.282Z,39.64
2019-04-21T09:48:20.751Z,39.75
2019-04-21T09:49:23.497Z,39.64
2019-04-21T09:50:17.499Z,39.75
2019-04-21T09:51:17.744Z,39.45
2019-04-21T09:52:20.891Z,39.45
2019-04-21T09:53:28.523Z,39.45
2019-04-21T09:54:23.125Z,39.64
2019-04-21T09:55:21.550Z,39.64
2019-04-21T09:56:28.604Z,39.64
2019-04-21T09:57:27.668Z,39.73
2019-04-21T09:58:27.337Z,39.73
2019-04-21T09:59:23.787Z,39.83
2019-04-21T10:00:21.096Z,39.54
2019-04-21T10:01:22.727Z,39.73
2019-04-21T10:02:30.465Z,39.83
2019-04-21T10:03:19.078Z,39.73
2019-04-21T10:04:16.459Z,39.83
2019-04-21T10:05:16.884Z,39.83
2019-04-21T10:06:17.454Z,39.83
2019-04-21T10:07:27.550Z,39.93
2019-04-21T10:08:17.127Z,39.93
2019-04-21T10:09:19.437Z,40.03
2019-04-21T10:10:17.235Z,40.13
2019-04-21T10:11:16.481Z,39.62
2019-04-21T10:12:16.328Z,39.62
2019-04-21T10:13:17.127Z,39.93
2019-04-21T10:14:17.487Z,39.93
2019-04-21T10:15:16.582Z,40.23
2019-04-21T10:16:17.461Z,39.83
2019-04-21T10:17:17.233Z,39.91
2019-04-21T10:18:17.248Z,39.83
2019-04-21T10:19:17.421Z,40.03
2019-04-21T10:20:17.135Z,40.01
2019-04-21T10:21:15.966Z,39.93
2019-04-21T10:22:17.063Z,40.01
2019-04-21T10:23:15.947Z,40.01
2019-04-21T10:24:16.048Z,40.03
2019-04-21T10:25:16.630Z,40.11
2019-04-21T10:26:16.792Z,40.21
2019-04-21T10:27:17.163Z,39.81
2019-04-21T10:28:16.769Z,40.11
2019-04-21T10:29:22.655Z,40.01
2019-04-21T10:30:16.904Z,39.83
2019-04-21T10:31:16.730Z,40.11
2019-04-21T10:32:18.306Z,39.81
2019-04-21T10:33:16.657Z,39.81
2019-04-21T10:34:17.033Z,40.11
2019-04-21T10:35:20.738Z,39.83
2019-04-21T10:36:17.107Z,39.81
2019-04-21T10:37:16.688Z,39.81
2019-04-21T10:38:27.367Z,40.01
2019-04-21T10:39:17.830Z,40.01
2019-04-21T10:40:15.937Z,40.11
2019-04-21T10:41:17.001Z,39.81
2019-04-21T10:42:15.739Z,39.81
2019-04-21T10:43:18.988Z,39.91
2019-04-21T10:44:17.069Z,39.81
2019-04-21T10:45:16.931Z,39.81
2019-04-21T10:46:16.926Z,39.91
2019-04-21T10:47:16.569Z,39.81
2019-04-21T10:48:16.853Z,40.01
2019-04-21T10:49:16.905Z,39.99
2019-04-21T10:50:16.272Z,39.91
2019-04-21T10:51:17.000Z,39.71
2019-04-21T10:52:15.637Z,39.91
2019-04-21T10:53:16.696Z,40.09
2019-04-21T10:54:15.877Z,40.01
2019-04-21T10:55:33.818Z,40.11
2019-04-21T10:56:25.131Z,40.01
2019-04-21T10:57:16.826Z,39.81
2019-04-21T10:58:16.223Z,39.59
2019-04-21T10:59:16.238Z,39.89
2019-04-21T11:00:16.063Z,39.91
2019-04-21T11:01:16.677Z,40.09
2019-04-21T11:02:16.976Z,39.99
2019-04-21T11:03:17.068Z,39.99
2019-04-21T11:04:23.102Z,39.89
2019-04-21T11:05:16.818Z,39.59
2019-04-21T11:06:16.877Z,39.59
2019-04-21T11:07:19.218Z,39.79
2019-04-21T11:08:23.045Z,39.99
2019-04-21T11:09:17.797Z,39.69
2019-04-21T11:10:16.123Z,40.09
2019-04-21T11:11:16.239Z,39.89
2019-04-21T11:12:15.642Z,40.09
2019-04-21T11:13:16.555Z,39.59
2019-04-21T11:14:15.525Z,39.99
2019-04-21T11:15:15.381Z,39.59
2019-04-21T11:16:15.416Z,39.89
2019-04-21T11:17:16.450Z,39.89
2019-04-21T11:18:15.715Z,39.99
2019-04-21T11:19:15.952Z,39.99
2019-04-21T11:20:15.363Z,39.59
2019-04-21T11:21:16.541Z,39.79
2019-04-21T11:22:16.687Z,40.09
2019-04-21T11:23:18.029Z,39.79
2019-04-21T11:24:16.236Z,39.89
2019-04-21T11:25:15.830Z,39.77
2019-04-21T11:26:16.035Z,39.99
2019-04-21T11:27:15.248Z,40.09
2019-04-21T11:28:23.043Z,39.77
2019-04-21T11:29:15.224Z,39.97
2019-04-21T11:30:15.745Z,39.97
2019-04-21T11:31:15.525Z,39.99
2019-04-21T11:32:15.237Z,39.69
2019-04-21T11:33:15.404Z,40.09
2019-04-21T11:34:15.586Z,40.09
2019-04-21T11:35:15.173Z,39.57
2019-04-21T11:36:15.588Z,40.07
2019-04-21T11:37:16.341Z,40.07
2019-04-21T11:38:20.422Z,39.49
2019-04-21T11:39:28.523Z,39.77
2019-04-21T11:40:18.536Z,39.57
2019-04-21T11:41:16.051Z,39.87
2019-04-21T11:42:15.605Z,39.57
2019-04-21T11:43:15.753Z,40.07
2019-04-21T11:44:16.222Z,39.77
2019-04-21T11:45:16.525Z,39.57
2019-04-21T11:46:16.213Z,39.87
2019-04-21T11:47:16.289Z,39.77
2019-04-21T11:48:16.521Z,40.07
2019-04-21T11:49:15.831Z,40.17
2019-04-21T11:50:15.077Z,40.07
2019-04-21T11:51:15.256Z,40.07
2019-04-21T11:52:15.055Z,39.97
2019-04-21T11:53:14.967Z,39.97
2019-04-21T11:54:15.172Z,39.87
2019-04-21T11:55:14.955Z,39.67
2019-04-21T11:56:14.943Z,40.07
2019-04-21T11:57:22.050Z,40.17
2019-04-21T11:58:16.015Z,40.07
2019-04-21T11:59:15.540Z,39.57
2019-04-21T12:00:15.775Z,40.27
2019-04-21T12:01:15.848Z,40.37
2019-04-21T12:02:15.225Z,40.07
2019-04-21T12:03:15.698Z,40.17
2019-04-21T12:04:16.099Z,40.37
2019-04-21T12:05:15.195Z,39.55
2019-04-21T12:06:15.450Z,40.35
2019-04-21T12:07:15.442Z,39.67
2019-04-21T12:08:23.134Z,39.75
2019-04-21T12:09:16.891Z,40.47
2019-04-21T12:10:15.502Z,39.77
2019-04-21T12:11:15.926Z,40.45
2019-04-21T12:12:15.067Z,40.27
2019-04-21T12:13:16.150Z,40.45
2019-04-21T12:14:14.774Z,39.85
2019-04-21T12:15:14.739Z,40.35
2019-04-21T12:16:15.003Z,39.75
2019-04-21T12:17:16.034Z,39.87
2019-04-21T12:18:15.540Z,39.75
2019-04-21T12:19:14.684Z,40.45
2019-04-21T12:20:14.808Z,39.95
2019-04-21T12:21:15.715Z,39.85
2019-04-21T12:22:21.259Z,40.35
2019-04-21T12:23:16.345Z,40.45
2019-04-21T12:24:15.263Z,39.85
2019-04-21T12:25:15.519Z,39.87
2019-04-21T12:26:15.841Z,40.45
2019-04-21T12:27:16.061Z,39.95
2019-04-21T12:28:15.976Z,40.15
2019-04-21T12:29:14.688Z,40.25
2019-04-21T12:30:15.670Z,40.15
2019-04-21T12:31:15.710Z,40.35
2019-04-21T12:32:15.829Z,40.35
2019-04-21T12:33:16.073Z,39.35
2019-04-21T12:34:14.547Z,40.15
2019-04-21T12:35:15.737Z,40.15
2019-04-21T12:36:15.750Z,40.25
2019-04-21T12:37:15.089Z,40.25
2019-04-21T12:38:14.530Z,40.65
2019-04-21T12:39:14.914Z,40.15
2019-04-21T12:40:14.794Z,40.65
2019-04-21T12:41:14.878Z,40.25
2019-04-21T12:42:14.555Z,40.45
2019-04-21T12:43:14.789Z,40.43
2019-04-21T12:44:14.891Z,40.55
2019-04-21T12:45:15.199Z,40.75
2019-04-21T12:46:14.411Z,40.75
2019-04-21T12:47:14.373Z,40.65
2019-04-21T12:48:15.846Z,40.85
2019-04-21T12:49:14.385Z,40.75
2019-04-21T12:50:14.839Z,40.75
2019-04-21T12:51:15.568Z,40.75
2019-04-21T12:52:15.525Z,40.95
2019-04-21T12:53:16.055Z,40.95
2019-04-21T12:54:15.473Z,40.95
2019-04-21T12:55:15.481Z,40.75
2019-04-21T12:56:15.687Z,40.73
2019-04-21T12:57:14.271Z,40.65
2019-04-21T12:58:15.285Z,40.75
2019-04-21T12:59:14.939Z,40.93
2019-04-21T13:00:15.127Z,40.73
2019-04-21T13:01:14.715Z,40.53
2019-04-21T13:02:14.215Z,40.63
2019-04-21T13:03:14.298Z,40.93
2019-04-21T13:04:15.334Z,40.95
2019-04-21T13:05:14.211Z,40.63
2019-04-21T13:06:14.180Z,40.63
2019-04-21T13:07:15.362Z,40.73
2019-04-21T13:08:15.362Z,40.75
2019-04-21T13:09:17.914Z,40.73
2019-04-21T13:10:16.127Z,40.63
2019-04-21T13:11:15.026Z,40.83
2019-04-21T13:12:15.212Z,40.73
2019-04-21T13:13:14.428Z,40.73
2019-04-21T13:14:14.110Z,40.83
2019-04-21T13:15:15.608Z,40.93
2019-04-21T13:16:14.086Z,41.03
2019-04-21T13:17:15.158Z,40.93
2019-04-21T13:18:14.406Z,41.03
2019-04-21T13:19:15.372Z,40.83
2019-04-21T13:20:14.975Z,40.93
2019-04-21T13:21:14.198Z,40.93
2019-04-21T13:22:14.248Z,40.63
2019-04-21T13:23:13.978Z,40.43
2019-04-21T13:24:13.975Z,40.33
2019-04-21T13:25:14.160Z,40.63
2019-04-21T13:26:16.129Z,40.23
2019-04-21T13:27:15.600Z,40.63
2019-04-21T13:28:14.693Z,40.43
2019-04-21T13:29:14.554Z,39.93
2019-04-21T13:30:14.651Z,40.43
2019-04-21T13:31:14.103Z,40.23
2019-04-21T13:32:14.407Z,40.33
2019-04-21T13:33:15.307Z,40.03
2019-04-21T13:34:14.062Z,40.33
2019-04-21T13:35:15.085Z,39.83
2019-04-21T13:36:14.050Z,40.33
2019-04-21T13:37:15.152Z,40.33
2019-04-21T13:38:23.137Z,40.23
2019-04-21T13:39:44.720Z,40.33
2019-04-21T13:40:35.725Z,39.63
2019-04-21T13:41:29.779Z,40.13
2019-04-21T13:42:23.993Z,40.33
2019-04-21T13:43:15.008Z,40.33
2019-04-21T13:44:15.496Z,40.43
2019-04-21T13:45:14.085Z,39.83
2019-04-21T13:46:13.775Z,39.63
2019-04-21T13:47:14.544Z,40.13
2019-04-21T13:48:14.773Z,39.63